createdAt,value
2023-05-12T00:00:06.270Z,6.05
2023-05-12T00:00:33.766Z,6.04
2023-05-12T00:00:56.212Z,6.03
2023-05-12T00:01:20.099Z,6.02
2023-05-12T00:01:42.219Z,6.01
2023-05-12T00:02:04.202Z,6.01
2023-05-12T00:02:26.169Z,6.00
2023-05-12T00:02:48.069Z,5.99
2023-05-12T00:03:09.928Z,5.98
2023-05-12T00:03:31.949Z,5.97
2023-05-12T00:03:54.312Z,5.97
2023-05-12T00:04:16.270Z,5.95
2023-05-12T00:04:40.610Z,5.95
2023-05-12T00:05:02.467Z,5.94
2023-05-12T00:05:24.322Z,5.93
2023-05-12T00:05:46.021Z,5.92
2023-05-12T00:06:07.994Z,5.92
2023-05-12T00:06:29.710Z,5.90
2023-05-12T00:06:51.410Z,5.89
2023-05-12T00:07:13.140Z,5.88
2023-05-12T00:07:34.925Z,5.87
2023-05-12T00:07:56.708Z,5.86
2023-05-12T00:08:18.590Z,5.86
2023-05-12T00:08:40.496Z,5.85
2023-05-12T00:09:02.267Z,5.84
2023-05-12T00:09:23.978Z,5.83
2023-05-12T00:09:45.940Z,5.82
2023-05-12T00:10:08.025Z,5.82
2023-05-12T00:10:29.817Z,5.81
2023-05-12T00:10:51.912Z,5.80
2023-05-12T00:11:13.705Z,5.79
2023-05-12T00:11:36.615Z,5.78
2023-05-12T00:11:58.378Z,5.77
2023-05-12T00:12:20.166Z,5.77
2023-05-12T00:12:42.466Z,5.76
2023-05-12T00:13:04.364Z,5.76
2023-05-12T00:13:27.196Z,5.76
2023-05-12T00:13:49.341Z,5.77
2023-05-12T00:14:11.236Z,5.77
2023-05-12T00:14:32.928Z,5.78
2023-05-12T00:14:54.706Z,5.79
2023-05-12T00:15:16.592Z,5.81
2023-05-12T00:15:38.308Z,5.82
2023-05-12T00:16:00.095Z,5.83
2023-05-12T00:16:21.923Z,5.84
2023-05-12T00:16:43.830Z,5.86
2023-05-12T00:17:06.860Z,5.86
2023-05-12T00:17:28.871Z,5.88
2023-05-12T00:17:52.499Z,5.88
2023-05-12T00:18:14.547Z,5.90
2023-05-12T00:18:36.457Z,5.90
2023-05-12T00:18:58.392Z,5.91
2023-05-12T00:19:20.526Z,5.92
2023-05-12T00:19:44.247Z,5.91
2023-05-12T00:20:06.539Z,5.91
2023-05-12T00:20:28.239Z,5.90
2023-05-12T00:20:50.009Z,5.89
2023-05-12T00:21:12.610Z,5.88
2023-05-12T00:21:34.397Z,5.88
2023-05-12T00:21:56.158Z,5.87
2023-05-12T00:22:17.888Z,5.86
2023-05-12T00:22:40.069Z,5.86
2023-05-12T00:23:01.837Z,5.85
2023-05-12T00:23:23.620Z,5.84
2023-05-12T00:23:45.408Z,5.83
2023-05-12T00:24:07.499Z,5.82
2023-05-12T00:24:30.835Z,5.82
2023-05-12T00:24:52.559Z,5.81
2023-05-12T00:25:14.275Z,5.81
2023-05-12T00:25:36.067Z,5.80
2023-05-12T00:25:57.856Z,5.79
2023-05-12T00:26:19.641Z,5.79
2023-05-12T00:26:42.236Z,5.77
2023-05-12T00:27:04.252Z,5.77
2023-05-12T00:27:26.117Z,5.76
2023-05-12T00:27:47.857Z,5.75
2023-05-12T00:28:09.574Z,5.75
2023-05-12T00:28:31.879Z,5.74
2023-05-12T00:28:53.568Z,5.74
2023-05-12T00:29:15.444Z,5.73
2023-05-12T00:29:37.232Z,5.73
2023-05-12T00:29:59.119Z,5.73
2023-05-12T00:30:21.458Z,5.72
2023-05-12T00:30:43.506Z,5.72
2023-05-12T00:31:05.533Z,5.71
2023-05-12T00:31:27.512Z,5.71
2023-05-12T00:31:49.268Z,5.70
2023-05-12T00:32:11.261Z,5.69
2023-05-12T00:32:32.983Z,5.68
2023-05-12T00:32:54.775Z,5.68
2023-05-12T00:33:17.428Z,5.68
2023-05-12T00:33:39.176Z,5.67
2023-05-12T00:34:01.029Z,5.67
2023-05-12T00:34:22.783Z,5.66
2023-05-12T00:34:44.569Z,5.65
2023-05-12T00:35:06.665Z,5.65
2023-05-12T00:35:28.380Z,5.65
2023-05-12T00:35:50.130Z,5.64
2023-05-12T00:36:11.827Z,5.64
2023-05-12T00:36:33.591Z,5.64
2023-05-12T00:36:55.287Z,5.64
2023-05-12T00:37:17.672Z,5.63
2023-05-12T00:37:39.461Z,5.63
2023-05-12T00:38:01.196Z,5.62
2023-05-12T00:38:22.933Z,5.62
2023-05-12T00:38:44.652Z,5.62
2023-05-12T00:39:06.491Z,5.63
2023-05-12T00:39:28.277Z,5.63
2023-05-12T00:39:49.982Z,5.64
2023-05-12T00:40:12.258Z,5.66
2023-05-12T00:40:34.147Z,5.68
2023-05-12T00:40:55.841Z,5.70
2023-05-12T00:41:17.611Z,5.72
2023-05-12T00:41:39.396Z,5.75
2023-05-12T00:42:01.913Z,5.76
2023-05-12T00:42:23.674Z,5.78
2023-05-12T00:42:45.873Z,5.80
2023-05-12T00:43:08.799Z,5.81
2023-05-12T00:43:32.107Z,5.83
2023-05-12T00:43:53.955Z,5.83
2023-05-12T00:44:15.678Z,5.84
2023-05-12T00:44:37.544Z,5.84
2023-05-12T00:44:59.756Z,5.84
2023-05-12T00:45:22.047Z,5.84
2023-05-12T00:45:44.501Z,5.85
2023-05-12T00:46:06.472Z,5.85
2023-05-12T00:46:28.374Z,5.84
2023-05-12T00:46:50.522Z,5.84
2023-05-12T00:47:12.614Z,5.84
2023-05-12T00:47:34.354Z,5.84
2023-05-12T00:47:56.126Z,5.84
2023-05-12T00:48:17.949Z,5.84
2023-05-12T00:48:39.703Z,5.84
2023-05-12T00:49:01.388Z,5.84
2023-05-12T00:49:23.107Z,5.84
2023-05-12T00:49:44.937Z,5.85
2023-05-12T00:50:07.094Z,5.85
2023-05-12T00:50:29.074Z,5.85
2023-05-12T00:50:50.964Z,5.85
2023-05-12T00:51:12.998Z,5.86
2023-05-12T00:51:34.685Z,5.86
2023-05-12T00:51:57.746Z,5.85
2023-05-12T00:52:19.838Z,5.86
2023-05-12T00:52:41.633Z,5.87
2023-05-12T00:53:03.412Z,5.87
2023-05-12T00:53:27.749Z,5.88
2023-05-12T00:53:55.677Z,5.88
2023-05-12T00:54:17.424Z,5.88
2023-05-12T00:54:39.237Z,5.88
2023-05-12T00:55:02.305Z,5.88
2023-05-12T00:55:24.749Z,5.88
2023-05-12T00:55:46.540Z,5.88
2023-05-12T00:56:08.289Z,5.88
2023-05-12T00:56:30.310Z,5.88
2023-05-12T00:56:52.319Z,5.88
2023-05-12T00:57:14.814Z,5.87
2023-05-12T00:57:36.579Z,5.87
2023-05-12T00:57:58.485Z,5.86
2023-05-12T00:58:21.280Z,5.86
2023-05-12T00:58:42.976Z,5.86
2023-05-12T00:59:07.617Z,5.86
2023-05-12T00:59:30.313Z,5.86
2023-05-12T00:59:52.304Z,5.85
2023-05-12T01:00:14.302Z,5.84
2023-05-12T01:00:37.411Z,5.84
2023-05-12T01:00:59.376Z,5.83
2023-05-12T01:01:21.540Z,5.83
2023-05-12T01:01:46.984Z,5.82
2023-05-12T01:02:08.867Z,5.82
2023-05-12T01:02:31.260Z,5.82
2023-05-12T01:02:53.377Z,5.82
2023-05-12T01:03:15.713Z,5.81
2023-05-12T01:03:38.114Z,5.81
2023-05-12T01:04:00.725Z,5.80
2023-05-12T01:04:22.861Z,5.80
2023-05-12T01:04:45.007Z,5.80
2023-05-12T01:05:06.924Z,5.80
2023-05-12T01:05:33.590Z,5.80
2023-05-12T01:05:56.909Z,5.80
2023-05-12T01:06:22.376Z,5.80
2023-05-12T01:06:53.465Z,5.79
2023-05-12T01:07:25.287Z,5.79
2023-05-12T01:07:48.099Z,5.79
2023-05-12T01:08:10.038Z,5.79
2023-05-12T01:08:32.983Z,5.79
2023-05-12T01:08:55.069Z,5.79
2023-05-12T01:09:17.579Z,5.79
2023-05-12T01:09:39.765Z,5.80
2023-05-12T01:10:01.871Z,5.82
2023-05-12T01:10:26.347Z,5.84
2023-05-12T01:10:48.247Z,5.85
2023-05-12T01:11:12.122Z,5.87
2023-05-12T01:11:33.909Z,5.90
2023-05-12T01:11:55.620Z,5.92
2023-05-12T01:12:17.327Z,5.94
2023-05-12T01:12:39.569Z,5.95
2023-05-12T01:13:01.295Z,5.97
2023-05-12T01:13:23.339Z,5.98
2023-05-12T01:13:45.442Z,5.99
2023-05-12T01:14:07.211Z,6.00
2023-05-12T01:14:29.833Z,6.00
2023-05-12T01:14:52.214Z,6.00
2023-05-12T01:15:14.207Z,5.99
2023-05-12T01:15:36.826Z,5.99
2023-05-12T01:15:59.204Z,5.99
2023-05-12T01:16:23.873Z,5.98
2023-05-12T01:16:52.428Z,5.97
2023-05-12T01:17:14.422Z,5.97
2023-05-12T01:17:36.363Z,5.96
2023-05-12T01:18:01.830Z,5.96
2023-05-12T01:18:24.353Z,5.96
2023-05-12T01:18:49.555Z,5.95
2023-05-12T01:19:15.320Z,5.95
2023-05-12T01:19:37.070Z,5.94
2023-05-12T01:19:59.342Z,5.94
2023-05-12T01:20:21.750Z,5.93
2023-05-12T01:20:46.599Z,5.93
2023-05-12T01:21:08.394Z,5.93
2023-05-12T01:21:30.187Z,5.91
2023-05-12T01:21:52.153Z,5.90
2023-05-12T01:22:13.961Z,5.90
2023-05-12T01:22:36.031Z,5.89
2023-05-12T01:22:58.457Z,5.89
2023-05-12T01:23:24.208Z,5.88
2023-05-12T01:23:48.954Z,5.88
2023-05-12T01:24:10.827Z,5.86
2023-05-12T01:24:33.648Z,5.87
2023-05-12T01:24:56.149Z,5.87
2023-05-12T01:25:19.281Z,5.85
2023-05-12T01:25:41.051Z,5.85
2023-05-12T01:26:09.576Z,5.85
2023-05-12T01:26:33.614Z,5.84
2023-05-12T01:26:56.115Z,5.84
2023-05-12T01:27:18.106Z,5.83
2023-05-12T01:27:40.091Z,5.83
2023-05-12T01:28:02.796Z,5.83
2023-05-12T01:28:25.003Z,5.82
2023-05-12T01:28:46.780Z,5.82
2023-05-12T01:29:08.578Z,5.81
2023-05-12T01:29:30.310Z,5.80
2023-05-12T01:29:52.124Z,5.80
2023-05-12T01:30:16.107Z,5.79
2023-05-12T01:30:41.842Z,5.79
2023-05-12T01:31:04.772Z,5.78
2023-05-12T01:31:26.670Z,5.78
2023-05-12T01:31:49.040Z,5.77
2023-05-12T01:32:11.325Z,5.76
2023-05-12T01:32:33.456Z,5.76
2023-05-12T01:32:55.394Z,5.75
2023-05-12T01:33:17.257Z,5.74
2023-05-12T01:33:39.997Z,5.74
2023-05-12T01:34:01.891Z,5.73
2023-05-12T01:34:24.834Z,5.73
2023-05-12T01:34:46.893Z,5.71
2023-05-12T01:35:09.281Z,5.72
2023-05-12T01:35:33.016Z,5.70
2023-05-12T01:35:56.326Z,5.70
2023-05-12T01:36:18.103Z,5.69
2023-05-12T01:36:40.049Z,5.69
2023-05-12T01:37:01.813Z,5.69
2023-05-12T01:37:26.910Z,5.68
2023-05-12T01:37:49.459Z,5.69
2023-05-12T01:38:11.232Z,5.70
2023-05-12T01:38:34.953Z,5.71
2023-05-12T01:38:57.045Z,5.73
2023-05-12T01:39:18.832Z,5.75
2023-05-12T01:39:40.562Z,5.76
2023-05-12T01:40:04.135Z,5.79
2023-05-12T01:40:26.849Z,5.81
2023-05-12T01:40:49.196Z,5.83
2023-05-12T01:41:11.136Z,5.86
2023-05-12T01:41:33.217Z,5.88
2023-05-12T01:41:54.898Z,5.90
2023-05-12T01:42:17.245Z,5.92
2023-05-12T01:42:40.023Z,5.94
2023-05-12T01:43:02.403Z,5.95
2023-05-12T01:43:27.216Z,5.96
2023-05-12T01:43:48.943Z,5.97
2023-05-12T01:44:10.922Z,5.97
2023-05-12T01:44:33.015Z,5.97
2023-05-12T01:44:54.799Z,5.97
2023-05-12T01:45:16.815Z,5.97
2023-05-12T01:45:38.768Z,5.97
2023-05-12T01:46:00.982Z,5.97
2023-05-12T01:46:24.737Z,5.97
2023-05-12T01:46:49.720Z,5.96
2023-05-12T01:47:11.637Z,5.97
2023-05-12T01:47:34.773Z,5.97
2023-05-12T01:48:01.874Z,5.96
2023-05-12T01:48:23.733Z,5.97
2023-05-12T01:48:45.835Z,5.97
2023-05-12T01:49:08.281Z,5.97
2023-05-12T01:49:30.680Z,5.97
2023-05-12T01:49:54.532Z,5.97
2023-05-12T01:50:16.454Z,5.98
2023-05-12T01:50:38.191Z,5.98
2023-05-12T01:51:06.766Z,5.98
2023-05-12T01:51:28.490Z,5.98
2023-05-12T01:51:51.257Z,5.98
2023-05-12T01:52:18.332Z,5.99
2023-05-12T01:52:40.144Z,5.99
2023-05-12T01:53:05.508Z,5.98
2023-05-12T01:53:28.427Z,5.98
2023-05-12T01:53:50.174Z,5.99
2023-05-12T01:54:12.194Z,5.99
2023-05-12T01:54:33.989Z,5.99
2023-05-12T01:54:55.765Z,5.99
2023-05-12T01:55:17.958Z,5.99
2023-05-12T01:55:48.985Z,6.01
2023-05-12T01:56:10.748Z,6.00
2023-05-12T01:56:32.507Z,6.00
2023-05-12T01:56:54.402Z,6.00
2023-05-12T01:57:16.187Z,5.99
2023-05-12T01:57:38.375Z,6.00
2023-05-12T01:58:00.158Z,5.99
2023-05-12T01:58:22.150Z,6.00
2023-05-12T01:58:44.076Z,6.00
2023-05-12T01:59:06.083Z,6.00
2023-05-12T01:59:28.309Z,5.99
2023-05-12T01:59:50.154Z,5.99
2023-05-12T02:00:13.068Z,5.99
2023-05-12T02:00:37.980Z,5.99
2023-05-12T02:00:59.755Z,5.99
2023-05-12T02:01:21.579Z,5.99
2023-05-12T02:01:43.513Z,5.99
2023-05-12T02:02:06.190Z,5.98
2023-05-12T02:02:30.444Z,5.98
2023-05-12T02:02:52.330Z,5.98
2023-05-12T02:03:14.363Z,5.98
2023-05-12T02:03:38.266Z,5.98
2023-05-12T02:04:05.032Z,5.98
2023-05-12T02:04:27.372Z,5.98
2023-05-12T02:04:50.205Z,5.97
2023-05-12T02:05:12.883Z,5.97
2023-05-12T02:05:35.177Z,5.96
2023-05-12T02:05:57.099Z,5.96
2023-05-12T02:06:19.155Z,5.96
2023-05-12T02:06:40.826Z,5.95
2023-05-12T02:07:02.631Z,5.96
2023-05-12T02:07:24.394Z,5.96
2023-05-12T02:07:46.296Z,5.97
2023-05-12T02:08:08.137Z,5.99
2023-05-12T02:08:30.113Z,6.00
2023-05-12T02:08:52.160Z,6.02
2023-05-12T02:09:14.133Z,6.04
2023-05-12T02:09:36.137Z,6.06
2023-05-12T02:09:58.740Z,6.09
2023-05-12T02:10:20.932Z,6.11
2023-05-12T02:10:43.041Z,6.13
2023-05-12T02:11:08.397Z,6.15
2023-05-12T02:11:30.725Z,6.16
2023-05-12T02:11:52.680Z,6.17
2023-05-12T02:12:14.408Z,6.18
2023-05-12T02:12:36.154Z,6.18
2023-05-12T02:12:58.845Z,6.19
2023-05-12T02:13:21.451Z,6.19
2023-05-12T02:13:46.097Z,6.19
2023-05-12T02:14:07.883Z,6.19
2023-05-12T02:14:29.879Z,6.19
2023-05-12T02:14:52.069Z,6.18
2023-05-12T02:15:13.950Z,6.18
2023-05-12T02:15:40.338Z,6.17
2023-05-12T02:16:02.265Z,6.17
2023-05-12T02:16:24.633Z,6.17
2023-05-12T02:16:48.954Z,6.17
2023-05-12T02:17:11.116Z,6.17
2023-05-12T02:17:33.078Z,6.17
2023-05-12T02:17:58.551Z,6.17
2023-05-12T02:18:20.568Z,6.17
2023-05-12T02:18:42.539Z,6.17
2023-05-12T02:19:04.506Z,6.18
2023-05-12T02:19:26.870Z,6.18
2023-05-12T02:19:49.717Z,6.18
2023-05-12T02:20:12.478Z,6.19
2023-05-12T02:20:34.594Z,6.19
2023-05-12T02:20:57.494Z,6.19
2023-05-12T02:21:19.277Z,6.18
2023-05-12T02:21:40.985Z,6.18
2023-05-12T02:22:02.689Z,6.19
2023-05-12T02:22:24.538Z,6.19
2023-05-12T02:22:46.310Z,6.19
2023-05-12T02:23:08.026Z,6.19
2023-05-12T02:23:29.815Z,6.20
2023-05-12T02:23:51.526Z,6.20
2023-05-12T02:24:14.935Z,6.19
2023-05-12T02:24:36.913Z,6.20
2023-05-12T02:24:58.858Z,6.20
2023-05-12T02:25:21.461Z,6.20
2023-05-12T02:25:43.695Z,6.20
2023-05-12T02:26:05.646Z,6.20
2023-05-12T02:26:27.582Z,6.20
2023-05-12T02:26:49.722Z,6.19
2023-05-12T02:27:11.438Z,6.20
2023-05-12T02:27:33.313Z,6.20
2023-05-12T02:27:55.414Z,6.20
2023-05-12T02:28:18.089Z,6.20
2023-05-12T02:28:39.874Z,6.20
2023-05-12T02:29:01.814Z,6.20
2023-05-12T02:29:23.851Z,6.20
2023-05-12T02:29:45.945Z,6.20
2023-05-12T02:30:08.458Z,6.20
2023-05-12T02:30:31.666Z,6.20
2023-05-12T02:30:54.466Z,6.20
2023-05-12T02:31:16.352Z,6.20
2023-05-12T02:31:38.158Z,6.20
2023-05-12T02:32:07.945Z,6.19
2023-05-12T02:32:29.922Z,6.20
2023-05-12T02:32:51.866Z,6.20
2023-05-12T02:33:14.701Z,6.19
2023-05-12T02:33:36.984Z,6.20
2023-05-12T02:33:59.279Z,6.19
2023-05-12T02:34:21.205Z,6.20
2023-05-12T02:34:42.936Z,6.20
2023-05-12T02:35:05.454Z,6.20
2023-05-12T02:35:27.333Z,6.20
2023-05-12T02:35:49.082Z,6.20
2023-05-12T02:36:10.905Z,6.20
2023-05-12T02:36:32.895Z,6.21
2023-05-12T02:36:54.579Z,6.21
2023-05-12T02:37:16.358Z,6.21
2023-05-12T02:37:38.190Z,6.21
2023-05-12T02:38:00.848Z,6.21
2023-05-12T02:38:22.643Z,6.22
2023-05-12T02:38:44.522Z,6.22
2023-05-12T02:39:06.613Z,6.22
2023-05-12T02:39:28.396Z,6.23
2023-05-12T02:39:52.020Z,6.23
2023-05-12T02:40:14.129Z,6.24
2023-05-12T02:40:35.819Z,6.25
2023-05-12T02:40:57.578Z,6.26
2023-05-12T02:41:20.286Z,6.27
2023-05-12T02:41:42.383Z,6.30
2023-05-12T02:42:04.464Z,6.32
2023-05-12T02:42:29.015Z,6.35
2023-05-12T02:42:51.115Z,6.38
2023-05-12T02:43:12.887Z,6.41
2023-05-12T02:43:34.673Z,6.43
2023-05-12T02:43:56.464Z,6.46
2023-05-12T02:44:18.663Z,6.49
2023-05-12T02:44:40.769Z,6.52
2023-05-12T02:45:03.182Z,6.54
2023-05-12T02:45:24.999Z,6.56
2023-05-12T02:45:46.826Z,6.58
2023-05-12T02:46:08.610Z,6.59
2023-05-12T02:46:30.628Z,6.61
2023-05-12T02:46:52.474Z,6.61
2023-05-12T02:47:14.216Z,6.62
2023-05-12T02:47:36.639Z,6.62
2023-05-12T02:47:58.480Z,6.63
2023-05-12T02:48:21.456Z,6.64
2023-05-12T02:48:43.247Z,6.65
2023-05-12T02:49:05.023Z,6.66
2023-05-12T02:49:26.813Z,6.67
2023-05-12T02:49:48.569Z,6.68
2023-05-12T02:50:10.577Z,6.69
2023-05-12T02:50:32.298Z,6.69
2023-05-12T02:50:54.362Z,6.71
2023-05-12T02:51:16.251Z,6.72
2023-05-12T02:51:38.031Z,6.73
2023-05-12T02:51:59.735Z,6.73
2023-05-12T02:52:22.311Z,6.74
2023-05-12T02:52:44.215Z,6.76
2023-05-12T02:53:06.082Z,6.76
2023-05-12T02:53:28.602Z,6.77
2023-05-12T02:53:50.384Z,6.78
2023-05-12T02:54:12.165Z,6.79
2023-05-12T02:54:33.938Z,6.79
2023-05-12T02:54:56.370Z,6.80
2023-05-12T02:55:18.068Z,6.82
2023-05-12T02:55:40.111Z,6.82
2023-05-12T02:56:01.811Z,6.84
2023-05-12T02:56:23.678Z,6.84
2023-05-12T02:56:45.565Z,6.86
2023-05-12T02:57:07.455Z,6.87
2023-05-12T02:57:34.280Z,6.88
2023-05-12T02:57:56.758Z,6.90
2023-05-12T02:58:18.537Z,6.91
2023-05-12T02:58:40.323Z,6.92
2023-05-12T02:59:02.125Z,6.93
2023-05-12T02:59:23.885Z,6.94
2023-05-12T02:59:45.682Z,6.95
2023-05-12T03:00:08.003Z,6.97
2023-05-12T03:00:31.919Z,6.98
2023-05-12T03:01:03.086Z,6.99
2023-05-12T03:01:31.654Z,7.00
2023-05-12T03:01:53.416Z,7.02
2023-05-12T03:02:15.849Z,7.03
2023-05-12T03:02:38.718Z,7.04
2023-05-12T03:03:01.421Z,7.05
2023-05-12T03:03:23.345Z,7.05
2023-05-12T03:03:45.388Z,7.07
2023-05-12T03:04:07.605Z,7.08
2023-05-12T03:04:29.383Z,7.09
2023-05-12T03:04:51.087Z,7.10
2023-05-12T03:05:13.162Z,7.11
2023-05-12T03:05:34.944Z,7.12
2023-05-12T03:05:57.045Z,7.13
2023-05-12T03:06:19.219Z,7.14
2023-05-12T03:06:41.213Z,7.16
2023-05-12T03:07:02.999Z,7.17
2023-05-12T03:07:24.883Z,7.18
2023-05-12T03:07:48.730Z,7.19
2023-05-12T03:08:10.439Z,7.20
2023-05-12T03:08:32.279Z,7.22
2023-05-12T03:08:56.013Z,7.22
2023-05-12T03:09:17.813Z,7.23
2023-05-12T03:09:39.517Z,7.25
2023-05-12T03:10:01.888Z,7.26
2023-05-12T03:10:23.761Z,7.27
2023-05-12T03:10:45.545Z,7.28
2023-05-12T03:11:07.340Z,7.30
2023-05-12T03:11:29.220Z,7.31
2023-05-12T03:11:51.206Z,7.32
2023-05-12T03:12:12.992Z,7.33
2023-05-12T03:12:34.779Z,7.34
2023-05-12T03:12:56.559Z,7.35
2023-05-12T03:13:18.237Z,7.36
2023-05-12T03:13:40.237Z,7.37
2023-05-12T03:14:02.323Z,7.38
2023-05-12T03:14:26.281Z,7.39
2023-05-12T03:14:48.760Z,7.40
2023-05-12T03:15:11.469Z,7.41
2023-05-12T03:15:33.261Z,7.42
2023-05-12T03:15:55.886Z,7.44
2023-05-12T03:16:19.756Z,7.46
2023-05-12T03:16:42.178Z,7.48
2023-05-12T03:17:04.508Z,7.51
2023-05-12T03:17:26.592Z,7.54
2023-05-12T03:17:48.382Z,7.57
2023-05-12T03:18:10.502Z,7.60
2023-05-12T03:18:32.352Z,7.63
2023-05-12T03:18:54.236Z,7.67
2023-05-12T03:19:15.951Z,7.71
2023-05-12T03:19:38.092Z,7.74
2023-05-12T03:19:59.775Z,7.77
2023-05-12T03:20:21.667Z,7.80
2023-05-12T03:20:43.853Z,7.82
2023-05-12T03:21:06.046Z,7.84
2023-05-12T03:21:28.756Z,7.86
2023-05-12T03:21:50.540Z,7.88
2023-05-12T03:22:12.222Z,7.90
2023-05-12T03:22:33.914Z,7.91
2023-05-12T03:22:55.687Z,7.91
2023-05-12T03:23:17.569Z,7.93
2023-05-12T03:23:39.355Z,7.93
2023-05-12T03:24:01.067Z,7.94
2023-05-12T03:24:22.947Z,7.94
2023-05-12T03:24:44.807Z,7.95
2023-05-12T03:25:07.433Z,7.96
2023-05-12T03:25:29.198Z,7.98
2023-05-12T03:25:51.081Z,7.98
2023-05-12T03:26:12.869Z,7.99
2023-05-12T03:26:34.760Z,8.00
2023-05-12T03:26:56.863Z,8.01
2023-05-12T03:27:18.859Z,8.02
2023-05-12T03:27:40.950Z,8.03
2023-05-12T03:28:03.832Z,8.04
2023-05-12T03:28:26.260Z,8.05
2023-05-12T03:28:48.138Z,8.06
2023-05-12T03:29:10.009Z,8.06
2023-05-12T03:29:32.106Z,8.08
2023-05-12T03:29:53.846Z,8.09
2023-05-12T03:30:16.309Z,8.09
2023-05-12T03:30:38.090Z,8.10
2023-05-12T03:31:00.197Z,8.11
2023-05-12T03:31:22.015Z,8.12
2023-05-12T03:31:44.106Z,8.13
2023-05-12T03:32:06.553Z,8.13
2023-05-12T03:32:28.811Z,8.14
2023-05-12T03:32:50.760Z,8.14
2023-05-12T03:33:12.602Z,8.15
2023-05-12T03:33:34.374Z,8.16
2023-05-12T03:33:56.181Z,8.16
2023-05-12T03:34:18.262Z,8.17
2023-05-12T03:34:40.159Z,8.17
2023-05-12T03:35:01.932Z,8.19
2023-05-12T03:35:24.333Z,8.20
2023-05-12T03:35:46.027Z,8.21
2023-05-12T03:36:08.109Z,8.21
2023-05-12T03:36:29.808Z,8.21
2023-05-12T03:36:51.620Z,8.22
2023-05-12T03:37:13.391Z,8.23
2023-05-12T03:37:35.344Z,8.24
2023-05-12T03:37:57.253Z,8.24
2023-05-12T03:38:19.119Z,8.25
2023-05-12T03:38:41.317Z,8.26
2023-05-12T03:39:03.419Z,8.26
2023-05-12T03:39:25.305Z,8.28
2023-05-12T03:39:47.096Z,8.28
2023-05-12T03:40:09.166Z,8.29
2023-05-12T03:40:30.955Z,8.29
2023-05-12T03:41:02.858Z,8.30
2023-05-12T03:41:24.646Z,8.31
2023-05-12T03:41:46.856Z,8.31
2023-05-12T03:42:08.751Z,8.32
2023-05-12T03:42:30.510Z,8.32
2023-05-12T03:42:52.220Z,8.33
2023-05-12T03:43:13.898Z,8.34
2023-05-12T03:43:36.106Z,8.34
2023-05-12T03:43:58.262Z,8.35
2023-05-12T03:44:20.043Z,8.36
2023-05-12T03:44:41.785Z,8.37
2023-05-12T03:45:05.469Z,8.37
2023-05-12T03:45:27.485Z,8.37
2023-05-12T03:45:49.382Z,8.38
2023-05-12T03:46:12.157Z,8.38
2023-05-12T03:46:34.328Z,8.39
2023-05-12T03:46:56.379Z,8.40
2023-05-12T03:47:18.494Z,8.41
2023-05-12T03:47:40.909Z,8.43
2023-05-12T03:48:03.330Z,8.46
2023-05-12T03:48:25.209Z,8.48
2023-05-12T03:48:47.288Z,8.50
2023-05-12T03:49:10.094Z,8.53
2023-05-12T03:49:32.294Z,8.56
2023-05-12T03:49:54.383Z,8.58
2023-05-12T03:50:16.575Z,8.61
2023-05-12T03:50:39.077Z,8.64
2023-05-12T03:51:00.808Z,8.67
2023-05-12T03:51:22.954Z,8.70
2023-05-12T03:51:46.776Z,8.72
2023-05-12T03:52:08.768Z,8.74
2023-05-12T03:52:30.530Z,8.76
2023-05-12T03:52:56.206Z,8.77
2023-05-12T03:53:18.217Z,8.78
2023-05-12T03:53:45.590Z,8.79
2023-05-12T03:54:08.029Z,8.80
2023-05-12T03:54:30.846Z,8.80
2023-05-12T03:54:52.631Z,8.80
2023-05-12T03:55:15.498Z,8.77
2023-05-12T03:55:37.924Z,8.82
2023-05-12T03:56:04.000Z,8.83
2023-05-12T03:56:25.796Z,8.83
2023-05-12T03:56:48.154Z,8.84
2023-05-12T03:57:10.069Z,8.84
2023-05-12T03:57:31.810Z,8.85
2023-05-12T03:57:53.891Z,8.86
2023-05-12T03:58:15.830Z,8.87
2023-05-12T03:58:38.240Z,8.87
2023-05-12T03:59:00.016Z,8.88
2023-05-12T03:59:22.007Z,8.88
2023-05-12T03:59:44.000Z,8.89
2023-05-12T04:00:06.418Z,8.89
2023-05-12T04:00:40.756Z,8.90
2023-05-12T04:01:02.745Z,8.91
2023-05-12T04:01:24.528Z,8.91
2023-05-12T04:01:46.260Z,8.92
2023-05-12T04:02:11.913Z,8.93
2023-05-12T04:02:34.802Z,8.93
2023-05-12T04:02:56.847Z,8.94
2023-05-12T04:03:18.664Z,8.94
2023-05-12T04:03:41.731Z,8.95
2023-05-12T04:04:03.900Z,8.95
2023-05-12T04:04:25.704Z,8.96
2023-05-12T04:04:47.391Z,8.97
2023-05-12T04:05:10.296Z,8.98
2023-05-12T04:05:32.147Z,8.99
2023-05-12T04:05:58.522Z,8.99
2023-05-12T04:06:20.307Z,9.00
2023-05-12T04:06:42.056Z,9.00
2023-05-12T04:07:03.995Z,9.01
2023-05-12T04:07:25.763Z,9.01
2023-05-12T04:07:47.650Z,9.02
2023-05-12T04:08:09.538Z,9.02
2023-05-12T04:08:31.524Z,9.02
2023-05-12T04:08:53.636Z,9.03
2023-05-12T04:09:16.831Z,9.04
2023-05-12T04:09:38.528Z,9.06
2023-05-12T04:10:00.615Z,9.06
2023-05-12T04:10:22.595Z,9.07
2023-05-12T04:10:45.097Z,9.08
2023-05-12T04:11:07.291Z,9.09
2023-05-12T04:11:28.993Z,9.10
2023-05-12T04:11:51.470Z,9.10
2023-05-12T04:12:13.255Z,9.11
2023-05-12T04:12:35.042Z,9.12
2023-05-12T04:12:57.543Z,9.12
2023-05-12T04:13:19.883Z,9.13
2023-05-12T04:13:41.632Z,9.14
2023-05-12T04:14:03.413Z,9.15
2023-05-12T04:14:35.343Z,9.16
2023-05-12T04:15:04.165Z,9.17
2023-05-12T04:15:26.043Z,9.19
2023-05-12T04:15:47.713Z,9.19
2023-05-12T04:16:10.116Z,9.20
2023-05-12T04:16:32.084Z,9.21
2023-05-12T04:16:54.003Z,9.22
2023-05-12T04:17:15.995Z,9.24
2023-05-12T04:17:37.825Z,9.25
2023-05-12T04:17:59.697Z,9.26
2023-05-12T04:18:21.455Z,9.26
2023-05-12T04:18:43.269Z,9.27
2023-05-12T04:19:05.327Z,9.29
2023-05-12T04:19:27.313Z,9.29
2023-05-12T04:19:49.110Z,9.30
2023-05-12T04:20:11.183Z,9.31
2023-05-12T04:20:33.789Z,9.32
2023-05-12T04:20:56.111Z,9.33
2023-05-12T04:21:17.826Z,9.33
2023-05-12T04:21:40.065Z,9.34
2023-05-12T04:22:01.773Z,9.34
2023-05-12T04:22:25.829Z,9.35
2023-05-12T04:22:48.389Z,9.36
2023-05-12T04:23:10.132Z,9.37
2023-05-12T04:23:32.361Z,9.37
2023-05-12T04:23:54.247Z,9.38
2023-05-12T04:24:18.687Z,9.39
2023-05-12T04:24:40.679Z,9.39
2023-05-12T04:25:02.545Z,9.40
2023-05-12T04:25:24.455Z,9.41
2023-05-12T04:25:46.155Z,9.42
2023-05-12T04:26:07.920Z,9.43
2023-05-12T04:26:29.699Z,9.43
2023-05-12T04:26:52.101Z,9.44
2023-05-12T04:27:14.504Z,9.45
2023-05-12T04:27:36.283Z,9.45
2023-05-12T04:27:58.069Z,9.47
2023-05-12T04:28:20.041Z,9.47
2023-05-12T04:28:42.555Z,9.48
2023-05-12T04:29:04.373Z,9.48
2023-05-12T04:29:26.228Z,9.49
2023-05-12T04:29:47.946Z,9.49
2023-05-12T04:30:11.334Z,9.50
2023-05-12T04:30:34.759Z,9.51
2023-05-12T04:30:56.639Z,9.51
2023-05-12T04:31:18.978Z,9.52
2023-05-12T04:31:40.957Z,9.52
2023-05-12T04:32:04.126Z,9.53
2023-05-12T04:32:26.108Z,9.53
2023-05-12T04:32:48.969Z,9.54
2023-05-12T04:33:11.587Z,9.54
2023-05-12T04:33:33.837Z,9.55
2023-05-12T04:33:56.349Z,9.56
2023-05-12T04:34:19.760Z,9.57
2023-05-12T04:34:41.752Z,9.58
2023-05-12T04:35:04.158Z,9.59
2023-05-12T04:35:26.109Z,9.60
2023-05-12T04:35:48.122Z,9.60
2023-05-12T04:36:09.877Z,9.60
2023-05-12T04:36:32.219Z,9.61
2023-05-12T04:36:54.109Z,9.62
2023-05-12T04:37:15.873Z,9.63
2023-05-12T04:37:37.969Z,9.64
2023-05-12T04:38:01.592Z,9.65
2023-05-12T04:38:23.380Z,9.66
2023-05-12T04:38:45.204Z,9.67
2023-05-12T04:39:07.148Z,9.68
2023-05-12T04:39:29.287Z,9.69
2023-05-12T04:39:51.435Z,9.69
2023-05-12T04:40:13.325Z,9.70
2023-05-12T04:40:35.324Z,9.71
2023-05-12T04:40:59.069Z,9.71
2023-05-12T04:41:21.656Z,9.72
2023-05-12T04:41:43.627Z,9.72
2023-05-12T04:42:06.132Z,9.64
2023-05-12T04:42:29.245Z,9.73
2023-05-12T04:42:51.437Z,9.73
2023-05-12T04:44:00.033Z,9.74
2023-05-12T04:44:20.111Z,9.75
2023-05-12T04:44:42.233Z,9.76
2023-05-12T04:45:04.395Z,9.77
2023-05-12T04:45:27.010Z,9.77
2023-05-12T04:45:50.555Z,9.78
2023-05-12T04:46:12.571Z,9.79
2023-05-12T04:46:34.620Z,9.80
2023-05-12T04:46:56.630Z,9.80
2023-05-12T04:47:18.699Z,9.81
2023-05-12T04:47:41.081Z,9.83
2023-05-12T04:48:02.915Z,9.84
2023-05-12T04:48:24.957Z,9.85
2023-05-12T04:48:46.649Z,9.86
2023-05-12T04:49:08.428Z,9.87
2023-05-12T04:49:30.116Z,9.88
2023-05-12T04:49:51.903Z,9.90
2023-05-12T04:50:13.898Z,9.90
2023-05-12T04:50:35.675Z,9.92
2023-05-12T04:51:00.721Z,9.93
2023-05-12T04:51:22.915Z,9.94
2023-05-12T04:51:44.805Z,9.96
2023-05-12T04:52:07.403Z,9.97
2023-05-12T04:52:29.421Z,9.97
2023-05-12T04:52:51.483Z,9.98
2023-05-12T04:53:13.266Z,9.99
2023-05-12T04:53:36.326Z,9.99
2023-05-12T04:53:58.066Z,10.01
2023-05-12T04:54:19.855Z,10.02
2023-05-12T04:54:41.735Z,10.02
2023-05-12T04:55:03.826Z,10.03
2023-05-12T04:55:25.635Z,10.04
2023-05-12T04:55:47.505Z,10.04
2023-05-12T04:56:09.974Z,10.05
2023-05-12T04:56:33.311Z,10.05
2023-05-12T04:56:55.013Z,10.06
2023-05-12T04:57:17.199Z,10.07
2023-05-12T04:57:41.560Z,10.07
2023-05-12T04:58:05.066Z,10.08
2023-05-12T04:58:27.046Z,10.10
2023-05-12T04:58:49.140Z,10.10